createdAt,value
2023-05-24T00:01:27.315Z,17.42
2023-05-24T00:04:02.404Z,29.83
2023-05-24T00:06:36.122Z,28.30
2023-05-24T00:09:07.102Z,20.77
2023-05-24T00:11:37.350Z,20.65
2023-05-24T00:14:08.067Z,21.15
2023-05-24T00:16:38.711Z,26.48
2023-05-24T00:19:12.438Z,21.52
2023-05-24T00:21:43.202Z,20.98
2023-05-24T00:24:14.219Z,18.90
2023-05-24T00:26:44.857Z,18.63
2023-05-24T00:29:16.315Z,15.73
2023-05-24T00:31:48.286Z,22.42
2023-05-24T00:34:18.941Z,19.23
2023-05-24T00:36:49.224Z,15.80
2023-05-24T00:39:20.510Z,19.67
2023-05-24T00:41:52.656Z,21.75
2023-05-24T00:44:25.368Z,21.20
2023-05-24T00:46:57.681Z,20.60
2023-05-24T00:49:29.515Z,24.23
2023-05-24T00:52:01.370Z,20.92
2023-05-24T00:54:32.648Z,14.85
2023-05-24T00:57:03.988Z,15.43
2023-05-24T00:59:35.701Z,14.88
2023-05-24T01:02:08.299Z,19.15
2023-05-24T01:04:39.610Z,18.20
2023-05-24T01:07:31.774Z,23.50
2023-05-24T01:10:09.734Z,22.98
2023-05-24T01:13:22.180Z,22.60
2023-05-24T01:15:55.825Z,23.63
2023-05-24T01:18:33.467Z,18.15
2023-05-24T01:21:22.543Z,18.55
2023-05-24T01:23:55.468Z,23.73
2023-05-24T01:26:44.098Z,16.65
2023-05-24T01:29:15.428Z,21.02
2023-05-24T01:31:46.652Z,27.23
2023-05-24T01:34:17.036Z,24.52
2023-05-24T01:36:49.309Z,29.73
2023-05-24T01:39:19.873Z,26.85
2023-05-24T01:42:05.726Z,34.33
2023-05-24T01:44:52.560Z,25.10
2023-05-24T01:47:51.947Z,24.38
2023-05-24T01:50:36.203Z,24.80
2023-05-24T01:53:10.670Z,23.13
2023-05-24T01:55:40.900Z,26.92
2023-05-24T01:58:12.835Z,29.48
2023-05-24T02:00:44.941Z,25.10
2023-05-24T02:03:19.731Z,27.13
2023-05-24T02:05:50.204Z,25.25
2023-05-24T02:08:21.287Z,26.33
2023-05-24T02:10:51.941Z,24.50
2023-05-24T02:13:22.626Z,28.10
2023-05-24T02:15:54.888Z,18.75
2023-05-24T02:18:25.482Z,24.45
2023-05-24T02:20:55.399Z,21.58
2023-05-24T02:23:25.742Z,23.67
2023-05-24T02:25:57.009Z,25.65
2023-05-24T02:28:27.377Z,18.95
2023-05-24T02:30:57.373Z,27.65
2023-05-24T02:33:28.027Z,20.13
2023-05-24T02:35:58.471Z,18.85
2023-05-24T02:38:28.857Z,22.45
2023-05-24T02:40:58.612Z,25.63
2023-05-24T02:43:29.220Z,27.08
2023-05-24T02:45:59.177Z,25.38
2023-05-24T02:48:29.522Z,25.27
2023-05-24T02:50:59.498Z,20.67
2023-05-24T02:53:29.873Z,24.05
2023-05-24T02:56:00.655Z,28.58
2023-05-24T02:58:33.713Z,37.70
2023-05-24T03:01:03.719Z,69.72
2023-05-24T03:03:34.379Z,21.30
2023-05-24T03:06:04.701Z,23.35
2023-05-24T03:08:38.537Z,26.17
2023-05-24T03:11:08.867Z,24.40
2023-05-24T03:13:39.436Z,28.02
2023-05-24T03:16:09.681Z,29.13
2023-05-24T03:18:40.050Z,26.73
2023-05-24T03:21:09.991Z,28.83
2023-05-24T03:23:40.944Z,25.40
2023-05-24T03:26:10.893Z,31.15
2023-05-24T03:28:44.462Z,30.90
2023-05-24T03:31:14.565Z,22.33
2023-05-24T03:33:45.154Z,23.30
2023-05-24T03:36:15.203Z,27.00
2023-05-24T03:38:46.107Z,25.98
2023-05-24T03:41:16.097Z,24.75
2023-05-24T03:43:46.592Z,21.67
2023-05-24T03:46:19.574Z,19.63
2023-05-24T03:48:50.981Z,23.38
2023-05-24T03:51:21.320Z,23.10
2023-05-24T03:53:51.770Z,24.25
2023-05-24T03:56:21.752Z,22.88
2023-05-24T03:58:53.469Z,18.55
2023-05-24T04:01:33.176Z,21.20
2023-05-24T04:04:07.674Z,21.63
2023-05-24T04:06:39.269Z,20.95
2023-05-24T04:09:11.128Z,25.60
2023-05-24T04:11:41.324Z,21.63
2023-05-24T04:14:14.419Z,24.30
2023-05-24T04:16:46.171Z,34.15
2023-05-24T04:19:16.630Z,29.55
2023-05-24T04:21:47.196Z,46.20
2023-05-24T04:24:17.556Z,82.07
2023-05-24T04:26:48.896Z,94.78
2023-05-24T04:29:20.034Z,85.07
2023-05-24T04:31:50.459Z,46.78
2023-05-24T04:34:23.552Z,69.00
2023-05-24T04:36:54.263Z,70.28
2023-05-24T04:39:24.673Z,37.33
2023-05-24T04:41:56.277Z,28.65
2023-05-24T04:44:27.061Z,22.00
2023-05-24T04:46:57.081Z,48.13
2023-05-24T04:49:27.451Z,38.38
2023-05-24T04:51:58.401Z,25.80
2023-05-24T04:54:28.753Z,66.25
2023-05-24T04:56:58.716Z,75.53
2023-05-24T04:59:29.044Z,94.15
2023-05-24T05:01:59.238Z,93.90
2023-05-24T05:04:29.969Z,54.38
2023-05-24T05:06:59.997Z,69.20
2023-05-24T05:09:31.391Z,92.82
2023-05-24T05:12:01.921Z,33.40
2023-05-24T05:14:32.384Z,26.98
2023-05-24T05:17:02.124Z,30.27
2023-05-24T05:19:32.597Z,29.35
2023-05-24T05:22:02.719Z,19.90
2023-05-24T05:24:33.257Z,19.02
2023-05-24T05:27:03.196Z,21.50
2023-05-24T05:29:33.520Z,26.88
2023-05-24T05:32:03.344Z,27.23
2023-05-24T05:34:33.675Z,23.10
2023-05-24T05:37:03.830Z,22.13
2023-05-24T05:39:34.434Z,21.05
2023-05-24T05:42:04.459Z,21.40
2023-05-24T05:44:35.060Z,25.08
2023-05-24T05:47:06.996Z,29.42
2023-05-24T05:49:37.715Z,27.98
2023-05-24T05:52:07.881Z,20.70
2023-05-24T05:54:38.231Z,29.10
2023-05-24T05:57:11.663Z,24.88
2023-05-24T05:59:42.038Z,29.60
2023-05-24T06:02:13.929Z,42.60
2023-05-24T06:04:44.500Z,21.70
2023-05-24T06:07:14.437Z,24.02
2023-05-24T06:09:44.204Z,20.52
2023-05-24T06:12:14.481Z,31.27
2023-05-24T06:14:44.489Z,26.95
2023-05-24T06:17:14.802Z,28.83
2023-05-24T06:19:47.318Z,23.33
2023-05-24T06:22:17.665Z,22.33
2023-05-24T06:24:48.086Z,23.67
2023-05-24T06:27:18.452Z,26.85
2023-05-24T06:29:48.415Z,31.55
2023-05-24T06:32:18.925Z,25.38
2023-05-24T06:34:48.969Z,22.08
2023-05-24T06:37:19.291Z,19.77
2023-05-24T06:39:49.300Z,98.82
2023-05-24T06:42:19.666Z,51.95
2023-05-24T06:44:49.664Z,38.20
2023-05-24T06:47:20.484Z,23.48
2023-05-24T06:49:51.110Z,26.08
2023-05-24T06:52:21.384Z,26.38
2023-05-24T06:54:51.805Z,26.50
2023-05-24T06:57:22.220Z,28.90
2023-05-24T06:59:52.289Z,31.75
2023-05-24T07:02:27.766Z,30.77
2023-05-24T07:04:58.488Z,29.77
2023-05-24T07:07:28.827Z,29.17
2023-05-24T07:09:58.803Z,24.50
2023-05-24T07:12:28.596Z,28.45
2023-05-24T07:14:58.961Z,20.75
2023-05-24T07:17:28.925Z,24.52
2023-05-24T07:19:59.455Z,24.65
2023-05-24T07:22:30.902Z,19.23
2023-05-24T07:25:01.278Z,21.40
2023-05-24T07:27:31.175Z,17.33
2023-05-24T07:30:01.508Z,16.58
2023-05-24T07:32:31.906Z,17.88
2023-05-24T07:35:02.322Z,17.45
2023-05-24T07:37:32.296Z,17.10
2023-05-24T07:40:03.203Z,19.73
2023-05-24T07:42:33.425Z,21.83
2023-05-24T07:45:04.534Z,17.88
2023-05-24T07:47:34.734Z,19.00
2023-05-24T07:50:05.723Z,17.20
2023-05-24T07:52:36.360Z,16.80
2023-05-24T07:55:07.808Z,16.95
2023-05-24T07:57:37.757Z,19.52
2023-05-24T08:00:15.491Z,20.25
2023-05-24T08:02:47.420Z,18.42
2023-05-24T08:05:18.650Z,19.02
2023-05-24T08:07:48.626Z,19.33
2023-05-24T08:10:20.652Z,23.77
2023-05-24T08:12:56.256Z,17.00
2023-05-24T08:15:26.633Z,20.98
2023-05-24T08:17:56.816Z,20.00
2023-05-24T08:20:27.393Z,21.75
2023-05-24T08:22:57.746Z,24.90
2023-05-24T08:25:28.557Z,21.80
2023-05-24T08:27:58.783Z,21.48
2023-05-24T08:30:29.301Z,24.80
2023-05-24T08:32:59.677Z,21.35
2023-05-24T08:35:30.108Z,22.13
2023-05-24T08:38:09.191Z,21.70
2023-05-24T08:40:40.299Z,23.00
2023-05-24T08:43:15.141Z,21.60
2023-05-24T08:45:47.234Z,28.73
2023-05-24T08:48:19.326Z,27.50
2023-05-24T08:50:54.488Z,26.75
2023-05-24T08:53:25.232Z,21.50
2023-05-24T08:55:57.366Z,23.95
2023-05-24T08:58:27.639Z,23.20
2023-05-24T09:00:58.082Z,26.40
2023-05-24T09:03:28.364Z,29.33
2023-05-24T09:05:59.753Z,23.65
2023-05-24T09:08:30.435Z,28.58
2023-05-24T09:11:01.586Z,27.48
2023-05-24T09:13:36.321Z,29.23
2023-05-24T09:16:08.312Z,28.45
2023-05-24T09:18:38.618Z,30.63
2023-05-24T09:21:10.015Z,31.90
2023-05-24T09:23:40.063Z,28.90
2023-05-24T09:26:11.814Z,25.88
2023-05-24T09:28:43.256Z,22.50
2023-05-24T09:31:14.915Z,27.30
2023-05-24T09:33:45.508Z,30.30
2023-05-24T09:36:19.307Z,37.05
2023-05-24T09:38:51.283Z,28.60
2023-05-24T09:41:22.253Z,49.88
2023-05-24T09:43:54.631Z,43.13
2023-05-24T09:46:24.768Z,39.63
2023-05-24T09:49:07.911Z,26.65
2023-05-24T09:51:40.848Z,20.80
2023-05-24T09:54:11.253Z,22.85
2023-05-24T09:56:42.036Z,24.90
2023-05-24T10:02:11.402Z,29.83
2023-05-24T10:04:42.189Z,21.70
2023-05-24T10:07:13.533Z,23.90
2023-05-24T10:09:46.183Z,31.90
2023-05-24T10:12:17.334Z,25.05
2023-05-24T10:14:47.675Z,27.58
2023-05-24T10:17:17.801Z,31.95
2023-05-24T10:19:48.168Z,29.98
2023-05-24T10:22:18.850Z,25.85
2023-05-24T10:24:50.273Z,23.77
2023-05-24T10:27:24.773Z,27.73
2023-05-24T10:30:35.969Z,22.70
2023-05-24T10:33:10.621Z,19.25
2023-05-24T10:35:42.119Z,18.52
2023-05-24T10:38:12.830Z,16.75
2023-05-24T10:40:44.843Z,18.33
2023-05-24T10:43:15.025Z,23.95
2023-05-24T10:45:51.061Z,25.38
2023-05-24T10:48:30.157Z,24.38
2023-05-24T10:53:42.114Z,20.13
2023-05-24T10:56:15.858Z,16.25
2023-05-24T10:58:59.995Z,14.10
2023-05-24T11:01:33.015Z,15.52
2023-05-24T11:04:10.220Z,13.38
2023-05-24T11:07:04.453Z,13.63
2023-05-24T11:09:35.514Z,10.77
2023-05-24T11:12:09.804Z,11.45
2023-05-24T11:14:41.423Z,12.23
2023-05-24T11:17:24.013Z,12.05
2023-05-24T11:19:56.827Z,13.25
2023-05-24T11:22:28.044Z,14.77
2023-05-24T11:25:01.236Z,13.70
2023-05-24T11:27:34.292Z,14.43
2023-05-24T11:32:37.244Z,17.15
2023-05-24T11:35:10.109Z,14.50
2023-05-24T11:40:17.465Z,19.70
2023-05-24T11:45:23.074Z,25.23
2023-05-24T11:47:53.421Z,26.80
2023-05-24T11:50:28.486Z,28.00
2023-05-24T11:53:04.938Z,29.38
2023-05-24T11:55:35.188Z,26.08
2023-05-24T11:58:13.216Z,28.52
2023-05-24T12:00:45.036Z,21.70
2023-05-24T12:03:15.751Z,23.70
2023-05-24T12:05:46.245Z,23.92
2023-05-24T12:08:19.578Z,19.45
2023-05-24T12:10:51.945Z,22.27
2023-05-24T12:13:27.631Z,20.48
2023-05-24T12:15:59.356Z,21.52
2023-05-24T12:18:30.312Z,22.08
2023-05-24T12:21:00.486Z,27.27
2023-05-24T12:23:33.109Z,15.98
2023-05-24T12:26:04.534Z,14.48
2023-05-24T12:28:40.088Z,14.35
2023-05-24T12:31:11.236Z,16.52
2023-05-24T12:33:41.625Z,12.63
2023-05-24T12:36:12.795Z,16.52
2023-05-24T12:38:43.225Z,20.02
2023-05-24T12:41:14.254Z,20.08
2023-05-24T12:43:45.533Z,19.00
2023-05-24T12:46:15.581Z,15.48
2023-05-24T12:48:46.551Z,17.27
2023-05-24T12:51:16.669Z,12.88
2023-05-24T12:53:47.569Z,14.85
2023-05-24T12:56:17.818Z,15.20
2023-05-24T12:58:48.523Z,17.17
2023-05-24T13:01:19.334Z,12.75
2023-05-24T13:03:49.720Z,11.07
2023-05-24T13:06:23.881Z,13.60
2023-05-24T13:08:54.736Z,17.20
2023-05-24T13:11:26.415Z,15.02
2023-05-24T13:16:40.664Z,14.90
2023-05-24T13:19:11.477Z,16.38
2023-05-24T13:21:41.864Z,11.30
2023-05-24T13:24:12.298Z,11.68
2023-05-24T13:26:42.737Z,11.90
2023-05-24T13:31:46.367Z,12.85
2023-05-24T13:34:16.915Z,12.40
2023-05-24T13:36:47.535Z,12.65
2023-05-24T13:39:17.955Z,9.98
2023-05-24T13:41:48.358Z,11.00
2023-05-24T13:44:19.073Z,8.23
2023-05-24T13:46:49.247Z,8.48
2023-05-24T13:49:19.896Z,8.27
2023-05-24T13:51:50.523Z,11.55
2023-05-24T13:54:20.891Z,10.45
2023-05-24T13:56:51.151Z,11.55
2023-05-24T13:59:21.476Z,10.13
2023-05-24T14:01:51.734Z,8.40
2023-05-24T14:04:22.130Z,8.52
2023-05-24T14:06:54.164Z,8.23
2023-05-24T14:09:24.900Z,8.98
2023-05-24T14:11:55.348Z,7.88
2023-05-24T14:16:58.602Z,10.55
2023-05-24T14:19:29.077Z,8.48
2023-05-24T14:21:59.088Z,8.80
2023-05-24T14:24:30.940Z,6.60
2023-05-24T14:27:00.902Z,11.13
2023-05-24T14:29:30.678Z,7.65
2023-05-24T14:32:01.141Z,9.57
2023-05-24T14:34:31.034Z,6.82
2023-05-24T14:37:00.837Z,8.55
2023-05-24T14:39:31.519Z,9.10
2023-05-24T14:42:02.290Z,8.98
2023-05-24T14:44:32.774Z,8.20
2023-05-24T14:47:02.797Z,8.88
2023-05-24T14:49:33.114Z,6.35
2023-05-24T14:52:03.090Z,6.20
2023-05-24T14:54:33.415Z,7.25
2023-05-24T14:57:03.605Z,7.18
2023-05-24T14:59:35.966Z,7.95
2023-05-24T15:04:49.210Z,9.18
2023-05-24T15:07:19.457Z,6.82
2023-05-24T15:09:49.905Z,9.05
2023-05-24T15:12:19.886Z,8.82
2023-05-24T15:17:33.348Z,8.88
2023-05-24T15:20:04.033Z,8.63
2023-05-24T15:22:35.139Z,8.25
2023-05-24T15:25:06.087Z,8.02
2023-05-24T15:27:36.037Z,5.13
2023-05-24T15:30:06.204Z,8.35
2023-05-24T15:32:36.585Z,6.40
2023-05-24T15:35:07.923Z,6.82
2023-05-24T15:37:38.223Z,8.05
2023-05-24T15:40:10.817Z,8.43
2023-05-24T15:42:41.310Z,6.35
2023-05-24T15:45:12.229Z,8.75
2023-05-24T15:47:42.623Z,5.75
2023-05-24T15:50:12.918Z,7.20
2023-05-24T15:52:43.346Z,5.85
2023-05-24T15:55:13.333Z,5.50
2023-05-24T15:57:43.824Z,8.50
2023-05-24T16:00:14.508Z,5.57
2023-05-24T16:02:44.658Z,7.78
2023-05-24T16:05:14.704Z,5.53
2023-05-24T16:07:45.141Z,7.22
2023-05-24T16:10:15.282Z,7.05
2023-05-24T16:12:45.651Z,9.23
2023-05-24T16:15:15.695Z,6.32
2023-05-24T16:17:46.105Z,5.57
2023-05-24T16:20:16.128Z,6.50
2023-05-24T16:22:50.955Z,4.93
2023-05-24T16:25:21.043Z,8.07
2023-05-24T16:27:51.569Z,7.22
2023-05-24T16:30:23.579Z,6.18
2023-05-24T16:32:54.203Z,9.88
2023-05-24T16:35:24.234Z,7.75
2023-05-24T16:40:37.394Z,4.85
2023-05-24T16:43:07.377Z,10.57
2023-05-24T16:45:37.474Z,7.38
2023-05-24T16:48:08.127Z,10.13
2023-05-24T16:50:38.197Z,8.82
2023-05-24T16:53:08.677Z,11.52
2023-05-24T16:55:38.600Z,14.30
2023-05-24T16:58:09.182Z,11.00
2023-05-24T17:00:39.127Z,8.75
2023-05-24T17:03:09.860Z,8.68
2023-05-24T17:05:40.790Z,9.75
2023-05-24T17:08:11.180Z,9.10
2023-05-24T17:10:44.256Z,5.57
2023-05-24T17:13:14.913Z,10.13
2023-05-24T17:15:44.946Z,6.38
2023-05-24T17:18:15.400Z,6.78
2023-05-24T17:20:45.436Z,6.68
2023-05-24T17:23:16.089Z,7.60
2023-05-24T17:25:46.063Z,7.88
2023-05-24T17:28:16.455Z,11.80
2023-05-24T17:30:46.792Z,6.82
2023-05-24T17:36:07.099Z,7.65
2023-05-24T17:38:40.659Z,6.95
2023-05-24T17:41:10.836Z,7.95
2023-05-24T17:43:41.693Z,10.75
2023-05-24T17:46:12.212Z,10.27
2023-05-24T17:48:43.976Z,7.88
2023-05-24T17:51:14.193Z,9.10
2023-05-24T17:53:44.777Z,6.53
2023-05-24T17:56:15.057Z,8.32
2023-05-24T17:58:47.396Z,9.50
2023-05-24T18:01:20.178Z,9.15
2023-05-24T18:03:50.624Z,7.65
2023-05-24T18:06:20.366Z,11.05
2023-05-24T18:08:50.890Z,9.27
2023-05-24T18:11:21.051Z,7.95
2023-05-24T18:13:51.769Z,9.50
2023-05-24T18:16:21.829Z,9.02
2023-05-24T18:18:52.293Z,7.80
2023-05-24T18:21:24.051Z,8.55
2023-05-24T18:23:54.528Z,7.78
2023-05-24T18:26:24.463Z,9.00
2023-05-24T18:28:54.949Z,7.45
2023-05-24T18:31:25.452Z,9.48
2023-05-24T18:33:56.295Z,7.03
2023-05-24T18:36:26.314Z,6.93
2023-05-24T18:38:56.904Z,7.25
2023-05-24T18:41:27.103Z,10.25
2023-05-24T18:43:57.646Z,8.05
2023-05-24T18:46:28.894Z,8.38
2023-05-24T18:51:34.125Z,12.18
2023-05-24T18:54:04.605Z,7.95
2023-05-24T18:56:54.323Z,11.75
2023-05-24T18:59:30.452Z,10.10
2023-05-24T19:02:02.062Z,8.88
2023-05-24T19:04:32.756Z,8.25
2023-05-24T19:07:02.694Z,9.27
2023-05-24T19:09:32.640Z,8.95
2023-05-24T19:12:17.133Z,9.45
2023-05-24T19:14:47.601Z,10.77
2023-05-24T19:17:17.976Z,7.38
2023-05-24T19:19:49.170Z,9.80
2023-05-24T19:22:19.522Z,7.70
2023-05-24T19:25:09.545Z,7.90
2023-05-24T19:27:47.722Z,10.07
2023-05-24T19:30:28.362Z,10.10
2023-05-24T19:32:58.794Z,42.33
2023-05-24T19:35:28.878Z,16.67
2023-05-24T19:37:58.669Z,11.13
2023-05-24T19:40:33.239Z,11.15
2023-05-24T19:43:03.500Z,6.88
2023-05-24T19:45:33.837Z,9.43
2023-05-24T19:48:03.823Z,12.43
2023-05-24T19:50:36.862Z,13.13
2023-05-24T19:53:07.277Z,10.15
2023-05-24T19:55:37.754Z,15.27
2023-05-24T19:58:07.798Z,11.65
2023-05-24T20:00:38.262Z,10.38
2023-05-24T20:03:08.324Z,10.80
2023-05-24T20:05:38.793Z,10.65
2023-05-24T20:08:08.760Z,13.13
2023-05-24T20:10:40.184Z,11.75
2023-05-24T20:13:10.273Z,11.65
2023-05-24T20:15:40.832Z,11.27
2023-05-24T20:18:11.069Z,16.40
2023-05-24T20:20:41.010Z,18.90
2023-05-24T20:23:11.496Z,23.10
2023-05-24T20:25:41.553Z,13.15
2023-05-24T20:28:25.666Z,11.52
2023-05-24T20:30:59.865Z,12.77
2023-05-24T20:33:30.288Z,14.40
2023-05-24T20:36:00.409Z,16.20
2023-05-24T20:38:30.695Z,15.45
2023-05-24T20:41:01.155Z,13.98
2023-05-24T20:43:31.633Z,13.98
2023-05-24T20:46:02.784Z,11.18
2023-05-24T20:48:33.462Z,12.57
2023-05-24T20:51:03.563Z,17.77
2023-05-24T20:53:33.999Z,16.08
2023-05-24T20:56:04.620Z,19.88
2023-05-24T20:58:35.018Z,12.98
2023-05-24T21:01:05.234Z,13.43
2023-05-24T21:03:39.750Z,14.07
2023-05-24T21:06:09.820Z,14.52
2023-05-24T21:08:40.294Z,12.43
2023-05-24T21:11:10.286Z,13.85
2023-05-24T21:13:42.268Z,17.23
2023-05-24T21:16:12.238Z,11.85
2023-05-24T21:18:42.526Z,13.50
2023-05-24T21:21:12.905Z,11.65
2023-05-24T21:23:42.856Z,17.17
2023-05-24T21:26:13.539Z,11.93
2023-05-24T21:28:43.590Z,13.77
2023-05-24T21:33:45.265Z,14.43
2023-05-24T21:36:15.705Z,16.58
2023-05-24T21:38:46.158Z,10.95
2023-05-24T21:41:16.603Z,12.82
2023-05-24T21:49:13.228Z,17.45
2023-05-24T21:51:43.017Z,15.23
2023-05-24T21:54:13.415Z,16.35
2023-05-24T21:56:43.415Z,17.10
2023-05-24T21:59:13.800Z,18.80
2023-05-24T22:01:43.919Z,18.08
2023-05-24T22:06:57.295Z,16.42
2023-05-24T22:09:27.134Z,15.77
2023-05-24T22:11:57.575Z,18.42
2023-05-24T22:14:28.194Z,20.63
2023-05-24T22:16:58.738Z,15.98
2023-05-24T22:19:39.564Z,17.77
2023-05-24T22:22:11.132Z,16.98
2023-05-24T22:24:41.985Z,19.40
2023-05-24T22:27:14.767Z,20.75
2023-05-24T22:29:45.325Z,20.83
2023-05-24T22:32:16.134Z,17.27
2023-05-24T22:34:46.183Z,17.00
2023-05-24T22:37:19.323Z,18.02
2023-05-24T22:39:49.316Z,16.83
2023-05-24T22:42:20.281Z,16.25
2023-05-24T22:44:50.316Z,20.77
2023-05-24T22:47:23.212Z,20.15
2023-05-24T22:49:57.659Z,19.10
2023-05-24T22:52:28.477Z,24.13
2023-05-24T22:54:58.509Z,22.17
2023-05-24T22:57:28.559Z,17.35
2023-05-24T22:59:59.059Z,19.40
2023-05-24T23:02:30.492Z,22.15
2023-05-24T23:05:01.478Z,18.90
2023-05-24T23:07:31.629Z,20.38
2023-05-24T23:12:46.329Z,20.33
2023-05-24T23:15:18.043Z,16.83
2023-05-24T23:17:49.191Z,22.48
2023-05-24T23:20:20.270Z,22.40
2023-05-24T23:22:50.803Z,23.75
2023-05-24T23:25:21.338Z,20.92
2023-05-24T23:27:51.353Z,26.25
2023-05-24T23:30:22.406Z,25.80
2023-05-24T23:32:52.531Z,22.17
2023-05-24T23:35:23.348Z,22.90
2023-05-24T23:37:54.873Z,19.65
2023-05-24T23:40:28.267Z,24.50
2023-05-24T23:42:59.265Z,26.70
2023-05-24T23:45:29.700Z,30.30
2023-05-24T23:48:00.342Z,27.60
2023-05-24T23:50:33.161Z,28.20
2023-05-24T23:55:41.883Z,22.88
2023-05-24T23:58:12.008Z,25.67
